sensor_id;sensor_type;location;lat;lon;timestamp;P1;durP1;ratioP1;P2;durP2;ratioP2
46158;SDS011;31888;44.512;26.104;2023-03-19T00:01:07;36.70;;;18.13;;
46158;SDS011;31888;44.512;26.104;2023-03-19T00:03:48;38.60;;;18.88;;
46158;SDS011;31888;44.512;26.104;2023-03-19T00:06:13;42.17;;;20.50;;
46158;SDS011;31888;44.512;26.104;2023-03-19T00:08:37;39.88;;;20.27;;
46158;SDS011;31888;44.512;26.104;2023-03-19T00:11:08;40.72;;;21.45;;
46158;SDS011;31888;44.512;26.104;2023-03-19T00:13:34;39.47;;;18.77;;
46158;SDS011;31888;44.512;26.104;2023-03-19T00:15:59;37.42;;;19.42;;
46158;SDS011;31888;44.512;26.104;2023-03-19T00:18:24;38.90;;;19.40;;
46158;SDS011;31888;44.512;26.104;2023-03-19T00:20:48;43.05;;;20.00;;
46158;SDS011;31888;44.512;26.104;2023-03-19T00:23:14;35.30;;;18.42;;
46158;SDS011;31888;44.512;26.104;2023-03-19T00:25:39;37.72;;;18.65;;
46158;SDS011;31888;44.512;26.104;2023-03-19T00:28:05;38.53;;;19.35;;
46158;SDS011;31888;44.512;26.104;2023-03-19T00:30:29;39.53;;;21.73;;
46158;SDS011;31888;44.512;26.104;2023-03-19T00:32:54;41.55;;;20.55;;
46158;SDS011;31888;44.512;26.104;2023-03-19T00:35:18;40.75;;;21.20;;
46158;SDS011;31888;44.512;26.104;2023-03-19T00:37:43;43.80;;;20.17;;
46158;SDS011;31888;44.512;26.104;2023-03-19T00:40:08;43.95;;;19.55;;
46158;SDS011;31888;44.512;26.104;2023-03-19T00:42:33;46.88;;;22.60;;
46158;SDS011;31888;44.512;26.104;2023-03-19T00:45:00;42.58;;;20.70;;
46158;SDS011;31888;44.512;26.104;2023-03-19T00:47:27;35.47;;;18.80;;
46158;SDS011;31888;44.512;26.104;2023-03-19T00:49:52;46.17;;;21.27;;
46158;SDS011;31888;44.512;26.104;2023-03-19T00:52:17;44.55;;;20.88;;
46158;SDS011;31888;44.512;26.104;2023-03-19T00:54:41;43.60;;;21.90;;
46158;SDS011;31888;44.512;26.104;2023-03-19T00:57:06;43.65;;;20.48;;
46158;SDS011;31888;44.512;26.104;2023-03-19T00:59:31;41.95;;;19.90;;
46158;SDS011;31888;44.512;26.104;2023-03-19T01:01:58;51.63;;;22.05;;
46158;SDS011;31888;44.512;26.104;2023-03-19T01:04:23;43.35;;;21.73;;
46158;SDS011;31888;44.512;26.104;2023-03-19T01:06:49;43.10;;;21.90;;
46158;SDS011;31888;44.512;26.104;2023-03-19T01:09:14;45.85;;;23.52;;
46158;SDS011;31888;44.512;26.104;2023-03-19T01:11:38;48.78;;;23.30;;
46158;SDS011;31888;44.512;26.104;2023-03-19T01:14:03;50.83;;;24.60;;
46158;SDS011;31888;44.512;26.104;2023-03-19T01:16:28;44.40;;;21.55;;
46158;SDS011;31888;44.512;26.104;2023-03-19T01:18:54;49.60;;;22.38;;
46158;SDS011;31888;44.512;26.104;2023-03-19T01:21:20;50.78;;;24.17;;
46158;SDS011;31888;44.512;26.104;2023-03-19T01:23:45;49.75;;;23.50;;
46158;SDS011;31888;44.512;26.104;2023-03-19T01:26:10;54.50;;;25.65;;
46158;SDS011;31888;44.512;26.104;2023-03-19T01:28:35;46.85;;;24.88;;
46158;SDS011;31888;44.512;26.104;2023-03-19T01:31:00;51.42;;;25.65;;
46158;SDS011;31888;44.512;26.104;2023-03-19T01:33:28;60.00;;;29.50;;
46158;SDS011;31888;44.512;26.104;2023-03-19T01:35:57;60.03;;;29.58;;
46158;SDS011;31888;44.512;26.104;2023-03-19T01:38:32;57.78;;;27.90;;
46158;SDS011;31888;44.512;26.104;2023-03-19T01:41:00;52.60;;;27.30;;
46158;SDS011;31888;44.512;26.104;2023-03-19T01:43:25;54.22;;;25.95;;
46158;SDS011;31888;44.512;26.104;2023-03-19T01:46:03;54.10;;;27.05;;
46158;SDS011;31888;44.512;26.104;2023-03-19T01:48:49;61.40;;;27.83;;
46158;SDS011;31888;44.512;26.104;2023-03-19T01:51:18;51.83;;;24.27;;
46158;SDS011;31888;44.512;26.104;2023-03-19T01:54:16;50.15;;;25.17;;
46158;SDS011;31888;44.512;26.104;2023-03-19T01:56:51;44.88;;;23.60;;
46158;SDS011;31888;44.512;26.104;2023-03-19T01:59:43;47.80;;;23.48;;
46158;SDS011;31888;44.512;26.104;2023-03-19T02:02:25;46.95;;;22.95;;
46158;SDS011;31888;44.512;26.104;2023-03-19T02:04:55;50.25;;;24.63;;
46158;SDS011;31888;44.512;26.104;2023-03-19T02:07:26;49.67;;;22.63;;
46158;SDS011;31888;44.512;26.104;2023-03-19T02:09:53;46.30;;;21.35;;
46158;SDS011;31888;44.512;26.104;2023-03-19T02:12:18;42.67;;;21.20;;
46158;SDS011;31888;44.512;26.104;2023-03-19T02:14:43;43.97;;;20.55;;
46158;SDS011;31888;44.512;26.104;2023-03-19T02:17:07;45.30;;;20.65;;
46158;SDS011;31888;44.512;26.104;2023-03-19T02:19:34;40.33;;;20.20;;
46158;SDS011;31888;44.512;26.104;2023-03-19T02:22:08;34.75;;;18.42;;
46158;SDS011;31888;44.512;26.104;2023-03-19T02:24:38;36.35;;;18.27;;
46158;SDS011;31888;44.512;26.104;2023-03-19T02:27:14;37.88;;;18.70;;
46158;SDS011;31888;44.512;26.104;2023-03-19T02:29:42;38.63;;;19.27;;
46158;SDS011;31888;44.512;26.104;2023-03-19T02:32:07;41.40;;;21.35;;
46158;SDS011;31888;44.512;26.104;2023-03-19T02:34:33;39.97;;;20.60;;
46158;SDS011;31888;44.512;26.104;2023-03-19T02:37:02;43.65;;;20.63;;
46158;SDS011;31888;44.512;26.104;2023-03-19T02:39:30;51.95;;;24.65;;
46158;SDS011;31888;44.512;26.104;2023-03-19T02:42:00;43.28;;;21.73;;
46158;SDS011;31888;44.512;26.104;2023-03-19T02:44:27;55.45;;;24.25;;
46158;SDS011;31888;44.512;26.104;2023-03-19T02:46:52;51.10;;;23.83;;
46158;SDS011;31888;44.512;26.104;2023-03-19T02:49:17;51.22;;;23.88;;
46158;SDS011;31888;44.512;26.104;2023-03-19T02:51:41;54.45;;;23.67;;
46158;SDS011;31888;44.512;26.104;2023-03-19T02:54:06;49.83;;;23.83;;
46158;SDS011;31888;44.512;26.104;2023-03-19T02:56:31;54.85;;;24.27;;
46158;SDS011;31888;44.512;26.104;2023-03-19T02:58:56;53.78;;;23.65;;
46158;SDS011;31888;44.512;26.104;2023-03-19T03:01:22;51.53;;;23.35;;
46158;SDS011;31888;44.512;26.104;2023-03-19T03:03:46;58.53;;;25.17;;
46158;SDS011;31888;44.512;26.104;2023-03-19T03:06:11;54.13;;;24.75;;
46158;SDS011;31888;44.512;26.104;2023-03-19T03:08:36;49.17;;;24.35;;
46158;SDS011;31888;44.512;26.104;2023-03-19T03:11:00;61.00;;;25.65;;
46158;SDS011;31888;44.512;26.104;2023-03-19T03:13:25;67.78;;;31.60;;
46158;SDS011;31888;44.512;26.104;2023-03-19T03:15:50;71.15;;;31.70;;
46158;SDS011;31888;44.512;26.104;2023-03-19T03:18:16;67.07;;;30.17;;
46158;SDS011;31888;44.512;26.104;2023-03-19T03:20:42;61.55;;;28.75;;
46158;SDS011;31888;44.512;26.104;2023-03-19T03:23:07;70.30;;;28.23;;
46158;SDS011;31888;44.512;26.104;2023-03-19T03:25:32;76.53;;;32.08;;
46158;SDS011;31888;44.512;26.104;2023-03-19T03:27:57;76.97;;;33.20;;
46158;SDS011;31888;44.512;26.104;2023-03-19T03:30:23;71.60;;;32.80;;
46158;SDS011;31888;44.512;26.104;2023-03-19T03:32:48;65.47;;;29.35;;
46158;SDS011;31888;44.512;26.104;2023-03-19T03:35:14;79.03;;;33.45;;
46158;SDS011;31888;44.512;26.104;2023-03-19T03:40:08;50.78;;;25.15;;
46158;SDS011;31888;44.512;26.104;2023-03-19T03:42:33;48.78;;;24.42;;
46158;SDS011;31888;44.512;26.104;2023-03-19T03:45:02;53.35;;;24.48;;
46158;SDS011;31888;44.512;26.104;2023-03-19T03:47:27;53.75;;;25.50;;
46158;SDS011;31888;44.512;26.104;2023-03-19T03:49:52;40.38;;;21.02;;
46158;SDS011;31888;44.512;26.104;2023-03-19T03:52:18;48.90;;;22.05;;
46158;SDS011;31888;44.512;26.104;2023-03-19T03:54:44;47.40;;;21.73;;
46158;SDS011;31888;44.512;26.104;2023-03-19T03:57:08;47.47;;;22.20;;
46158;SDS011;31888;44.512;26.104;2023-03-19T03:59:34;48.70;;;22.58;;
46158;SDS011;31888;44.512;26.104;2023-03-19T04:01:58;47.20;;;22.25;;
46158;SDS011;31888;44.512;26.104;2023-03-19T04:04:23;45.63;;;23.17;;
46158;SDS011;31888;44.512;26.104;2023-03-19T04:06:48;49.97;;;23.60;;
46158;SDS011;31888;44.512;26.104;2023-03-19T04:09:34;44.15;;;22.27;;
46158;SDS011;31888;44.512;26.104;2023-03-19T04:11:59;61.03;;;26.67;;
46158;SDS011;31888;44.512;26.104;2023-03-19T04:14:24;64.25;;;27.83;;
46158;SDS011;31888;44.512;26.104;2023-03-19T04:16:50;50.20;;;23.52;;
46158;SDS011;31888;44.512;26.104;2023-03-19T04:19:18;53.42;;;25.10;;
46158;SDS011;31888;44.512;26.104;2023-03-19T04:21:42;44.13;;;21.65;;
46158;SDS011;31888;44.512;26.104;2023-03-19T04:24:07;53.15;;;25.30;;
46158;SDS011;31888;44.512;26.104;2023-03-19T04:26:39;47.13;;;23.55;;
46158;SDS011;31888;44.512;26.104;2023-03-19T04:29:04;54.05;;;24.73;;
46158;SDS011;31888;44.512;26.104;2023-03-19T04:31:30;46.20;;;22.25;;
46158;SDS011;31888;44.512;26.104;2023-03-19T04:33:54;49.67;;;23.17;;
46158;SDS011;31888;44.512;26.104;2023-03-19T04:36:20;53.78;;;23.08;;
46158;SDS011;31888;44.512;26.104;2023-03-19T04:38:44;51.80;;;23.45;;
46158;SDS011;31888;44.512;26.104;2023-03-19T04:41:09;45.50;;;21.27;;
46158;SDS011;31888;44.512;26.104;2023-03-19T04:43:41;46.00;;;21.60;;
46158;SDS011;31888;44.512;26.104;2023-03-19T04:46:06;46.08;;;22.15;;
46158;SDS011;31888;44.512;26.104;2023-03-19T04:48:31;46.97;;;21.83;;
46158;SDS011;31888;44.512;26.104;2023-03-19T04:50:57;41.35;;;20.60;;
46158;SDS011;31888;44.512;26.104;2023-03-19T04:53:22;45.92;;;19.95;;
46158;SDS011;31888;44.512;26.104;2023-03-19T04:55:47;38.50;;;19.83;;
46158;SDS011;31888;44.512;26.104;2023-03-19T04:58:14;42.70;;;20.73;;
46158;SDS011;31888;44.512;26.104;2023-03-19T05:00:44;43.50;;;21.30;;
46158;SDS011;31888;44.512;26.104;2023-03-19T05:03:14;43.50;;;21.45;;
46158;SDS011;31888;44.512;26.104;2023-03-19T05:05:38;44.85;;;21.63;;
46158;SDS011;31888;44.512;26.104;2023-03-19T05:08:04;42.90;;;19.80;;
46158;SDS011;31888;44.512;26.104;2023-03-19T05:10:29;44.10;;;21.50;;
46158;SDS011;31888;44.512;26.104;2023-03-19T05:12:55;47.40;;;22.23;;
46158;SDS011;31888;44.512;26.104;2023-03-19T05:15:19;42.95;;;22.33;;
46158;SDS011;31888;44.512;26.104;2023-03-19T05:18:03;49.00;;;21.48;;
46158;SDS011;31888;44.512;26.104;2023-03-19T05:20:31;40.85;;;22.75;;
46158;SDS011;31888;44.512;26.104;2023-03-19T05:23:01;44.40;;;20.92;;
46158;SDS011;31888;44.512;26.104;2023-03-19T05:25:33;43.97;;;21.73;;
46158;SDS011;31888;44.512;26.104;2023-03-19T05:28:01;42.88;;;21.70;;
46158;SDS011;31888;44.512;26.104;2023-03-19T05:30:26;43.55;;;20.98;;
46158;SDS011;31888;44.512;26.104;2023-03-19T05:33:03;45.33;;;22.67;;
46158;SDS011;31888;44.512;26.104;2023-03-19T05:35:31;42.35;;;22.80;;
46158;SDS011;31888;44.512;26.104;2023-03-19T05:37:58;43.60;;;22.20;;
46158;SDS011;31888;44.512;26.104;2023-03-19T05:40:23;46.85;;;23.00;;
46158;SDS011;31888;44.512;26.104;2023-03-19T05:42:49;48.40;;;23.38;;
46158;SDS011;31888;44.512;26.104;2023-03-19T05:45:17;44.10;;;24.20;;
46158;SDS011;31888;44.512;26.104;2023-03-19T05:47:46;45.45;;;23.42;;
46158;SDS011;31888;44.512;26.104;2023-03-19T05:50:17;46.75;;;23.10;;
46158;SDS011;31888;44.512;26.104;2023-03-19T05:53:04;48.15;;;24.75;;
46158;SDS011;31888;44.512;26.104;2023-03-19T05:55:34;44.73;;;24.33;;
46158;SDS011;31888;44.512;26.104;2023-03-19T05:58:01;45.70;;;24.30;;
46158;SDS011;31888;44.512;26.104;2023-03-19T06:00:25;47.70;;;23.77;;
46158;SDS011;31888;44.512;26.104;2023-03-19T06:02:50;46.08;;;24.95;;
46158;SDS011;31888;44.512;26.104;2023-03-19T06:05:48;50.90;;;24.83;;
46158;SDS011;31888;44.512;26.104;2023-03-19T06:08:34;49.47;;;25.83;;
46158;SDS011;31888;44.512;26.104;2023-03-19T06:11:07;50.33;;;26.17;;
46158;SDS011;31888;44.512;26.104;2023-03-19T06:13:32;56.10;;;27.20;;
46158;SDS011;31888;44.512;26.104;2023-03-19T06:16:03;46.05;;;26.00;;
46158;SDS011;31888;44.512;26.104;2023-03-19T06:18:37;47.63;;;26.13;;
46158;SDS011;31888;44.512;26.104;2023-03-19T06:21:06;50.97;;;26.27;;
46158;SDS011;31888;44.512;26.104;2023-03-19T06:23:31;53.17;;;27.90;;
46158;SDS011;31888;44.512;26.104;2023-03-19T06:25:59;51.40;;;25.92;;
46158;SDS011;31888;44.512;26.104;2023-03-19T06:28:28;53.40;;;26.77;;
46158;SDS011;31888;44.512;26.104;2023-03-19T06:30:53;52.30;;;27.30;;
46158;SDS011;31888;44.512;26.104;2023-03-19T06:33:36;53.63;;;27.00;;
46158;SDS011;31888;44.512;26.104;2023-03-19T06:36:01;54.13;;;26.90;;
46158;SDS011;31888;44.512;26.104;2023-03-19T06:38:28;55.55;;;28.65;;
46158;SDS011;31888;44.512;26.104;2023-03-19T06:40:53;51.55;;;27.83;;
46158;SDS011;31888;44.512;26.104;2023-03-19T06:43:17;44.03;;;25.08;;
46158;SDS011;31888;44.512;26.104;2023-03-19T06:45:42;50.17;;;28.02;;
46158;SDS011;31888;44.512;26.104;2023-03-19T06:48:07;50.55;;;27.58;;
46158;SDS011;31888;44.512;26.104;2023-03-19T06:50:31;49.05;;;27.52;;
46158;SDS011;31888;44.512;26.104;2023-03-19T06:52:56;55.08;;;26.73;;
46158;SDS011;31888;44.512;26.104;2023-03-19T06:55:22;49.47;;;26.15;;
46158;SDS011;31888;44.512;26.104;2023-03-19T06:57:47;51.40;;;26.13;;
46158;SDS011;31888;44.512;26.104;2023-03-19T07:00:13;47.78;;;24.48;;
46158;SDS011;31888;44.512;26.104;2023-03-19T07:02:38;42.58;;;23.42;;
46158;SDS011;31888;44.512;26.104;2023-03-19T07:05:03;42.22;;;22.55;;
46158;SDS011;31888;44.512;26.104;2023-03-19T07:07:28;46.45;;;25.33;;
46158;SDS011;31888;44.512;26.104;2023-03-19T07:09:53;45.38;;;24.70;;
46158;SDS011;31888;44.512;26.104;2023-03-19T07:12:18;46.28;;;25.08;;
46158;SDS011;31888;44.512;26.104;2023-03-19T07:14:43;43.83;;;24.95;;
46158;SDS011;31888;44.512;26.104;2023-03-19T07:17:07;43.03;;;23.13;;
46158;SDS011;31888;44.512;26.104;2023-03-19T07:19:32;40.60;;;22.25;;
46158;SDS011;31888;44.512;26.104;2023-03-19T07:21:57;40.55;;;21.73;;
46158;SDS011;31888;44.512;26.104;2023-03-19T07:24:22;36.72;;;21.45;;
46158;SDS011;31888;44.512;26.104;2023-03-19T07:26:48;42.22;;;24.30;;
46158;SDS011;31888;44.512;26.104;2023-03-19T07:29:14;41.22;;;24.27;;
46158;SDS011;31888;44.512;26.104;2023-03-19T07:31:39;44.97;;;25.65;;
46158;SDS011;31888;44.512;26.104;2023-03-19T07:34:04;47.10;;;26.13;;
46158;SDS011;31888;44.512;26.104;2023-03-19T07:36:29;50.05;;;26.60;;
46158;SDS011;31888;44.512;26.104;2023-03-19T07:38:53;49.13;;;26.88;;
46158;SDS011;31888;44.512;26.104;2023-03-19T07:41:19;51.67;;;28.15;;
46158;SDS011;31888;44.512;26.104;2023-03-19T07:43:43;54.30;;;29.65;;
46158;SDS011;31888;44.512;26.104;2023-03-19T07:46:09;49.67;;;27.92;;
46158;SDS011;31888;44.512;26.104;2023-03-19T07:48:34;50.25;;;27.20;;
46158;SDS011;31888;44.512;26.104;2023-03-19T07:50:59;53.75;;;28.70;;
46158;SDS011;31888;44.512;26.104;2023-03-19T07:53:24;52.08;;;28.77;;
46158;SDS011;31888;44.512;26.104;2023-03-19T07:55:49;56.30;;;29.83;;
46158;SDS011;31888;44.512;26.104;2023-03-19T07:58:13;53.85;;;28.75;;
46158;SDS011;31888;44.512;26.104;2023-03-19T08:00:38;56.15;;;30.20;;
46158;SDS011;31888;44.512;26.104;2023-03-19T08:03:04;49.55;;;27.10;;
46158;SDS011;31888;44.512;26.104;2023-03-19T08:05:29;50.38;;;27.20;;
46158;SDS011;31888;44.512;26.104;2023-03-19T08:07:54;46.90;;;26.77;;
46158;SDS011;31888;44.512;26.104;2023-03-19T08:10:18;52.33;;;28.20;;
46158;SDS011;31888;44.512;26.104;2023-03-19T08:12:43;55.75;;;29.00;;
46158;SDS011;31888;44.512;26.104;2023-03-19T08:15:10;53.03;;;28.58;;
46158;SDS011;31888;44.512;26.104;2023-03-19T08:17:35;44.22;;;24.17;;
46158;SDS011;31888;44.512;26.104;2023-03-19T08:20:02;40.95;;;22.77;;
46158;SDS011;31888;44.512;26.104;2023-03-19T08:22:27;40.28;;;23.15;;
46158;SDS011;31888;44.512;26.104;2023-03-19T08:24:52;42.55;;;23.65;;
46158;SDS011;31888;44.512;26.104;2023-03-19T08:27:17;45.45;;;23.75;;
46158;SDS011;31888;44.512;26.104;2023-03-19T08:29:42;43.42;;;24.50;;
46158;SDS011;31888;44.512;26.104;2023-03-19T08:32:09;41.08;;;24.63;;
46158;SDS011;31888;44.512;26.104;2023-03-19T08:34:34;38.53;;;22.80;;
46158;SDS011;31888;44.512;26.104;2023-03-19T08:37:00;44.17;;;23.42;;
46158;SDS011;31888;44.512;26.104;2023-03-19T08:39:25;36.30;;;21.90;;
46158;SDS011;31888;44.512;26.104;2023-03-19T08:41:50;37.65;;;22.63;;
46158;SDS011;31888;44.512;26.104;2023-03-19T08:44:14;39.35;;;24.52;;
46158;SDS011;31888;44.512;26.104;2023-03-19T08:46:38;39.55;;;23.33;;
46158;SDS011;31888;44.512;26.104;2023-03-19T08:49:04;40.05;;;23.08;;
46158;SDS011;31888;44.512;26.104;2023-03-19T08:51:28;41.42;;;23.92;;
46158;SDS011;31888;44.512;26.104;2023-03-19T08:53:54;38.97;;;23.58;;
46158;SDS011;31888;44.512;26.104;2023-03-19T08:56:19;45.70;;;25.95;;
46158;SDS011;31888;44.512;26.104;2023-03-19T08:58:46;46.70;;;25.75;;
46158;SDS011;31888;44.512;26.104;2023-03-19T09:01:11;45.15;;;25.85;;
46158;SDS011;31888;44.512;26.104;2023-03-19T09:03:36;44.03;;;23.85;;
46158;SDS011;31888;44.512;26.104;2023-03-19T09:06:01;42.20;;;23.75;;
46158;SDS011;31888;44.512;26.104;2023-03-19T09:08:34;37.63;;;21.27;;
46158;SDS011;31888;44.512;26.104;2023-03-19T09:11:00;37.63;;;21.70;;
46158;SDS011;31888;44.512;26.104;2023-03-19T09:13:25;39.08;;;21.95;;
46158;SDS011;31888;44.512;26.104;2023-03-19T09:15:50;36.50;;;21.13;;
46158;SDS011;31888;44.512;26.104;2023-03-19T09:18:14;37.58;;;22.05;;
46158;SDS011;31888;44.512;26.104;2023-03-19T09:20:40;41.15;;;23.88;;
46158;SDS011;31888;44.512;26.104;2023-03-19T09:23:05;42.55;;;24.90;;
46158;SDS011;31888;44.512;26.104;2023-03-19T09:25:29;43.40;;;23.15;;
46158;SDS011;31888;44.512;26.104;2023-03-19T09:27:55;43.67;;;22.80;;
46158;SDS011;31888;44.512;26.104;2023-03-19T09:30:20;39.33;;;22.58;;
46158;SDS011;31888;44.512;26.104;2023-03-19T09:32:45;37.30;;;21.65;;
46158;SDS011;31888;44.512;26.104;2023-03-19T09:35:09;36.55;;;20.33;;
46158;SDS011;31888;44.512;26.104;2023-03-19T09:37:34;33.90;;;19.75;;
46158;SDS011;31888;44.512;26.104;2023-03-19T09:39:59;39.50;;;21.02;;
46158;SDS011;31888;44.512;26.104;2023-03-19T09:42:28;39.58;;;22.25;;
46158;SDS011;31888;44.512;26.104;2023-03-19T09:45:09;40.47;;;23.23;;
46158;SDS011;31888;44.512;26.104;2023-03-19T09:47:39;40.75;;;24.90;;
46158;SDS011;31888;44.512;26.104;2023-03-19T09:50:05;40.33;;;24.92;;
46158;SDS011;31888;44.512;26.104;2023-03-19T09:52:38;41.72;;;21.23;;
46158;SDS011;31888;44.512;26.104;2023-03-19T09:55:17;29.58;;;17.45;;
46158;SDS011;31888;44.512;26.104;2023-03-19T09:58:07;35.33;;;20.52;;
46158;SDS011;31888;44.512;26.104;2023-03-19T10:00:39;36.63;;;19.88;;
46158;SDS011;31888;44.512;26.104;2023-03-19T10:03:09;36.20;;;21.15;;
46158;SDS011;31888;44.512;26.104;2023-03-19T10:05:48;35.15;;;20.15;;
46158;SDS011;31888;44.512;26.104;2023-03-19T10:08:34;40.10;;;22.08;;
46158;SDS011;31888;44.512;26.104;2023-03-19T10:11:12;37.88;;;21.95;;
46158;SDS011;31888;44.512;26.104;2023-03-19T10:13:52;36.83;;;20.50;;
46158;SDS011;31888;44.512;26.104;2023-03-19T10:16:28;36.45;;;21.23;;
46158;SDS011;31888;44.512;26.104;2023-03-19T10:18:54;37.78;;;21.80;;
46158;SDS011;31888;44.512;26.104;2023-03-19T10:21:23;37.35;;;21.02;;
46158;SDS011;31888;44.512;26.104;2023-03-19T10:23:54;39.35;;;22.45;;
46158;SDS011;31888;44.512;26.104;2023-03-19T10:26:25;39.20;;;22.23;;
46158;SDS011;31888;44.512;26.104;2023-03-19T10:31:24;52.78;;;22.70;;
46158;SDS011;31888;44.512;26.104;2023-03-19T10:33:58;33.47;;;20.60;;
46158;SDS011;31888;44.512;26.104;2023-03-19T10:36:34;36.05;;;20.15;;
46158;SDS011;31888;44.512;26.104;2023-03-19T10:38:59;36.63;;;21.85;;
46158;SDS011;31888;44.512;26.104;2023-03-19T10:41:28;35.67;;;19.77;;
46158;SDS011;31888;44.512;26.104;2023-03-19T10:44:01;36.40;;;20.73;;
46158;SDS011;31888;44.512;26.104;2023-03-19T10:46:39;37.30;;;20.85;;
46158;SDS011;31888;44.512;26.104;2023-03-19T10:49:28;31.30;;;19.80;;
46158;SDS011;31888;44.512;26.104;2023-03-19T10:51:58;32.97;;;18.92;;
46158;SDS011;31888;44.512;26.104;2023-03-19T10:54:26;32.63;;;18.60;;
46158;SDS011;31888;44.512;26.104;2023-03-19T10:56:57;29.67;;;18.05;;
46158;SDS011;31888;44.512;26.104;2023-03-19T10:59:30;29.02;;;17.92;;
46158;SDS011;31888;44.512;26.104;2023-03-19T11:01:58;28.60;;;15.50;;
46158;SDS011;31888;44.512;26.104;2023-03-19T11:04:34;28.55;;;15.60;;
46158;SDS011;31888;44.512;26.104;2023-03-19T11:07:01;24.23;;;14.55;;
46158;SDS011;31888;44.512;26.104;2023-03-19T11:09:44;28.42;;;15.55;;
46158;SDS011;31888;44.512;26.104;2023-03-19T11:12:26;26.17;;;15.20;;
46158;SDS011;31888;44.512;26.104;2023-03-19T11:14:55;29.17;;;17.20;;
46158;SDS011;31888;44.512;26.104;2023-03-19T11:17:24;30.65;;;17.83;;
46158;SDS011;31888;44.512;26.104;2023-03-19T11:19:59;28.80;;;16.23;;
46158;SDS011;31888;44.512;26.104;2023-03-19T11:22:41;23.55;;;14.85;;
46158;SDS011;31888;44.512;26.104;2023-03-19T11:25:13;21.75;;;14.13;;
46158;SDS011;31888;44.512;26.104;2023-03-19T11:27:42;25.13;;;13.57;;
46158;SDS011;31888;44.512;26.104;2023-03-19T11:30:11;22.65;;;13.48;;
46158;SDS011;31888;44.512;26.104;2023-03-19T11:35:32;22.52;;;13.75;;
46158;SDS011;31888;44.512;26.104;2023-03-19T11:38:00;21.67;;;12.23;;
46158;SDS011;31888;44.512;26.104;2023-03-19T11:40:29;20.23;;;12.15;;
46158;SDS011;31888;44.512;26.104;2023-03-19T11:43:09;20.63;;;12.27;;
46158;SDS011;31888;44.512;26.104;2023-03-19T11:45:58;23.48;;;12.52;;
46158;SDS011;31888;44.512;26.104;2023-03-19T11:48:33;20.17;;;12.40;;
46158;SDS011;31888;44.512;26.104;2023-03-19T11:51:09;18.58;;;11.68;;
46158;SDS011;31888;44.512;26.104;2023-03-19T11:53:46;23.33;;;11.73;;
46158;SDS011;31888;44.512;26.104;2023-03-19T11:56:25;20.05;;;10.52;;
46158;SDS011;31888;44.512;26.104;2023-03-19T12:01:59;17.87;;;8.83;;
46158;SDS011;31888;44.512;26.104;2023-03-19T12:04:46;13.68;;;8.07;;
46158;SDS011;31888;44.512;26.104;2023-03-19T12:07:23;12.82;;;7.70;;
46158;SDS011;31888;44.512;26.104;2023-03-19T12:09:54;14.63;;;9.00;;
46158;SDS011;31888;44.512;26.104;2023-03-19T12:12:28;15.88;;;9.73;;
46158;SDS011;31888;44.512;26.104;2023-03-19T12:15:03;16.30;;;8.93;;
46158;SDS011;31888;44.512;26.104;2023-03-19T12:17:42;12.68;;;7.70;;
46158;SDS011;31888;44.512;26.104;2023-03-19T12:22:59;15.30;;;9.07;;
46158;SDS011;31888;44.512;26.104;2023-03-19T12:25:32;14.50;;;9.27;;
46158;SDS011;31888;44.512;26.104;2023-03-19T12:28:06;17.77;;;8.50;;
46158;SDS011;31888;44.512;26.104;2023-03-19T12:30:40;17.60;;;9.57;;
46158;SDS011;31888;44.512;26.104;2023-03-19T12:33:14;15.05;;;8.68;;
46158;SDS011;31888;44.512;26.104;2023-03-19T12:35:57;16.02;;;9.13;;
46158;SDS011;31888;44.512;26.104;2023-03-19T12:38:25;14.82;;;8.73;;
46158;SDS011;31888;44.512;26.104;2023-03-19T12:43:22;15.80;;;9.65;;
46158;SDS011;31888;44.512;26.104;2023-03-19T12:45:51;16.23;;;9.98;;
46158;SDS011;31888;44.512;26.104;2023-03-19T12:48:22;13.17;;;9.00;;
46158;SDS011;31888;44.512;26.104;2023-03-19T12:50:51;13.40;;;8.10;;
46158;SDS011;31888;44.512;26.104;2023-03-19T12:53:25;13.13;;;7.60;;
46158;SDS011;31888;44.512;26.104;2023-03-19T12:55:57;11.20;;;7.13;;
46158;SDS011;31888;44.512;26.104;2023-03-19T12:58:35;15.65;;;8.15;;
46158;SDS011;31888;44.512;26.104;2023-03-19T13:01:06;12.57;;;7.55;;
46158;SDS011;31888;44.512;26.104;2023-03-19T13:03:37;16.50;;;7.22;;
46158;SDS011;31888;44.512;26.104;2023-03-19T13:06:09;17.13;;;8.95;;
46158;SDS011;31888;44.512;26.104;2023-03-19T13:08:42;16.48;;;8.75;;
46158;SDS011;31888;44.512;26.104;2023-03-19T13:11:11;11.95;;;7.53;;
46158;SDS011;31888;44.512;26.104;2023-03-19T13:13:38;12.85;;;7.78;;
46158;SDS011;31888;44.512;26.104;2023-03-19T13:18:37;20.27;;;8.40;;
46158;SDS011;31888;44.512;26.104;2023-03-19T13:21:14;13.25;;;7.63;;
46158;SDS011;31888;44.512;26.104;2023-03-19T13:23:46;11.55;;;7.40;;
46158;SDS011;31888;44.512;26.104;2023-03-19T13:26:14;16.57;;;6.90;;
46158;SDS011;31888;44.512;26.104;2023-03-19T13:28:52;13.18;;;8.25;;
46158;SDS011;31888;44.512;26.104;2023-03-19T13:31:22;11.85;;;7.93;;
46158;SDS011;31888;44.512;26.104;2023-03-19T13:33:50;11.50;;;7.47;;
46158;SDS011;31888;44.512;26.104;2023-03-19T13:36:24;10.68;;;7.60;;
46158;SDS011;31888;44.512;26.104;2023-03-19T13:38:55;13.38;;;6.07;;
46158;SDS011;31888;44.512;26.104;2023-03-19T13:44:27;10.85;;;7.10;;
46158;SDS011;31888;44.512;26.104;2023-03-19T13:46:59;13.50;;;7.22;;
46158;SDS011;31888;44.512;26.104;2023-03-19T13:49:32;15.30;;;7.40;;
46158;SDS011;31888;44.512;26.104;2023-03-19T13:51:58;13.50;;;7.25;;
46158;SDS011;31888;44.512;26.104;2023-03-19T13:54:43;14.85;;;7.85;;
46158;SDS011;31888;44.512;26.104;2023-03-19T13:57:19;16.70;;;7.97;;
46158;SDS011;31888;44.512;26.104;2023-03-19T14:00:52;11.90;;;8.05;;
46158;SDS011;31888;44.512;26.104;2023-03-19T14:03:18;16.35;;;8.75;;
46158;SDS011;31888;44.512;26.104;2023-03-19T14:05:44;16.50;;;8.27;;
46158;SDS011;31888;44.512;26.104;2023-03-19T14:08:13;19.60;;;9.13;;
46158;SDS011;31888;44.512;26.104;2023-03-19T14:10:46;14.27;;;8.65;;
46158;SDS011;31888;44.512;26.104;2023-03-19T14:13:16;14.15;;;8.13;;
46158;SDS011;31888;44.512;26.104;2023-03-19T14:15:47;11.32;;;6.95;;
46158;SDS011;31888;44.512;26.104;2023-03-19T14:18:14;10.77;;;6.95;;
46158;SDS011;31888;44.512;26.104;2023-03-19T14:20:43;12.27;;;7.45;;
46158;SDS011;31888;44.512;26.104;2023-03-19T14:23:18;13.77;;;8.50;;
46158;SDS011;31888;44.512;26.104;2023-03-19T14:26:03;13.45;;;8.43;;
46158;SDS011;31888;44.512;26.104;2023-03-19T14:28:34;22.35;;;8.57;;
46158;SDS011;31888;44.512;26.104;2023-03-19T14:31:05;15.10;;;8.43;;
46158;SDS011;31888;44.512;26.104;2023-03-19T14:33:42;16.90;;;9.18;;
46158;SDS011;31888;44.512;26.104;2023-03-19T14:36:11;16.45;;;9.43;;
46158;SDS011;31888;44.512;26.104;2023-03-19T14:38:42;14.00;;;8.73;;
46158;SDS011;31888;44.512;26.104;2023-03-19T14:41:14;13.50;;;8.60;;
46158;SDS011;31888;44.512;26.104;2023-03-19T14:43:47;14.63;;;8.52;;